Time;durP1;ratioP1;P1;durP2;ratioP2;P2;SDS_P1;SDS_P2;PMS_P1;PMS_P2;Temp;Humidity;BMP_temperature;BMP_pressure;BME280_temperature;BME280_humidity;BME280_pressure;Samples;Min_cycle;Max_cycle;Signal;HPM_P1;HPM_P2
2023/05/16 00:00:34;;;;;;;;;;;10.10;99.90;;;;;;5017526;28;19926;-68
2023/05/16 00:03:01;;;;;;;;;;;10.10;99.90;;;;;;5020954;28;19932;-68
2023/05/16 00:05:28;;;;;;;;;;;10.10;99.90;;;;;;5020373;28;20058;-68
2023/05/16 00:07:55;;;;;;;;;;;10.00;99.90;;;;;;5013073;28;19925;-68
2023/05/16 00:10:22;;;;;;;;;;;10.00;99.90;;;;;;5012855;28;19925;-67
2023/05/16 00:12:50;;;;;;;;;;;10.00;99.90;;;;;;5012762;28;19929;-67
2023/05/16 00:15:19;;;;;;;;;;;9.90;99.90;;;;;;4943058;28;1898879;-68
2023/05/16 00:17:48;;;;;;;;;;;9.90;99.90;;;;;;5004306;28;19925;-67
2023/05/16 00:20:16;;;;;;;;;;;9.90;99.90;;;;;;5009656;28;19929;-67
2023/05/16 00:22:42;;;;;;;;;;;9.90;99.90;;;;;;5016359;28;19932;-67
2023/05/16 00:25:09;;;;;;;;;;;9.80;99.90;;;;;;5021944;28;19993;-68
2023/05/16 00:27:36;;;;;;;;;;;9.80;99.90;;;;;;5021710;28;19925;-69
2023/05/16 00:30:03;;;;;;;;;;;9.80;99.90;;;;;;5013480;28;19929;-67
2023/05/16 00:32:31;;;;;;;;;;;9.80;99.90;;;;;;5008604;28;19926;-68
2023/05/16 00:34:59;;;;;;;;;;;9.80;99.90;;;;;;5021949;28;19925;-68
2023/05/16 00:37:26;;;;;;;;;;;9.80;99.90;;;;;;5021615;28;19925;-67
2023/05/16 00:39:54;;;;;;;;;;;9.70;99.90;;;;;;5009959;28;19948;-68
2023/05/16 00:42:21;;;;;;;;;;;9.80;99.90;;;;;;5012177;28;19926;-67
2023/05/16 00:44:47;;;;;;;;;;;9.70;99.90;;;;;;5015590;28;19933;-67
2023/05/16 00:47:15;;;;;;;;;;;9.70;99.90;;;;;;5019258;28;19965;-67
2023/05/16 00:49:42;;;;;;;;;;;9.60;99.90;;;;;;5013168;28;19940;-68
2023/05/16 00:52:11;;;;;;;;;;;9.60;99.90;;;;;;5009977;28;19929;-67
2023/05/16 00:54:37;;;;;;;;;;;9.60;99.90;;;;;;5014703;28;20384;-68
2023/05/16 00:57:05;;;;;;;;;;;9.60;99.90;;;;;;5023434;28;19926;-68
2023/05/16 00:59:32;;;;;;;;;;;9.60;99.90;;;;;;5012470;28;19934;-67
2023/05/16 01:01:59;;;;;;;;;;;9.60;99.90;;;;;;5011365;28;19925;-68
2023/05/16 01:04:26;;;;;;;;;;;9.60;99.90;;;;;;5006726;28;20355;-67
2023/05/16 01:06:54;;;;;;;;;;;9.60;99.90;;;;;;5026168;28;20281;-68
2023/05/16 01:09:23;;;;;;;;;;;9.50;99.90;;;;;;5013940;28;19926;-68
2023/05/16 01:11:51;;;;;;;;;;;9.50;99.90;;;;;;5012973;28;19937;-68
2023/05/16 01:14:21;;;;;;;;;;;9.50;99.90;;;;;;5012592;28;19925;-67
2023/05/16 01:16:59;;;;;;;;;;;9.50;99.90;;;;;;5012140;28;19933;-68
2023/05/16 01:19:32;;;;;;;;;;;9.40;99.90;;;;;;5009136;28;19957;-68
2023/05/16 01:22:04;;;;;;;;;;;9.40;99.90;;;;;;5006138;28;19935;-67
2023/05/16 01:24:34;;;;;;;;;;;9.40;99.90;;;;;;5014094;28;19925;-68
2023/05/16 01:27:04;;;;;;;;;;;9.40;99.90;;;;;;5012945;28;19925;-67
2023/05/16 01:29:30;;;;;;;;;;;9.40;99.90;;;;;;5024266;28;20005;-68
2023/05/16 01:31:57;;;;;;;;;;;9.40;99.90;;;;;;5018331;28;19933;-68
2023/05/16 01:34:25;;;;;;;;;;;9.40;99.90;;;;;;5002780;28;19930;-68
2023/05/16 01:37:00;;;;;;;;;;;9.40;99.90;;;;;;5018477;28;19932;-67
2023/05/16 01:39:30;;;;;;;;;;;9.40;99.90;;;;;;5011332;28;19925;-67
2023/05/16 01:42:01;;;;;;;;;;;9.30;99.90;;;;;;5012115;28;19948;-67
2023/05/16 01:44:32;;;;;;;;;;;9.30;99.90;;;;;;5012168;28;20295;-68
2023/05/16 01:47:01;;;;;;;;;;;9.30;99.90;;;;;;5021810;28;19925;-67
2023/05/16 01:49:31;;;;;;;;;;;9.20;99.90;;;;;;5024737;28;19926;-68
2023/05/16 01:52:00;;;;;;;;;;;9.20;99.90;;;;;;5012148;28;19929;-67
2023/05/16 01:54:30;;;;;;;;;;;9.20;99.90;;;;;;5012021;28;19926;-68
2023/05/16 01:56:59;;;;;;;;;;;9.20;99.90;;;;;;5026087;28;19933;-68
2023/05/16 01:59:26;;;;;;;;;;;9.10;99.90;;;;;;5025772;28;19925;-68
2023/05/16 02:01:57;;;;;;;;;;;9.20;99.90;;;;;;5011784;28;19926;-68
2023/05/16 02:04:24;;;;;;;;;;;9.20;99.90;;;;;;5020463;28;19927;-68
2023/05/16 02:06:51;;;;;;;;;;;9.20;99.90;;;;;;5025909;28;19957;-69
2023/05/16 02:09:17;;;;;;;;;;;9.20;99.90;;;;;;5025527;28;19925;-67
2023/05/16 02:11:45;;;;;;;;;;;9.10;99.90;;;;;;5005090;28;19932;-68
2023/05/16 02:14:12;;;;;;;;;;;9.10;99.90;;;;;;5004868;28;19930;-67
2023/05/16 02:16:39;;;;;;;;;;;9.10;99.90;;;;;;5005093;28;19925;-67
2023/05/16 02:19:07;;;;;;;;;;;9.10;99.90;;;;;;5008506;28;19926;-67
2023/05/16 02:21:34;;;;;;;;;;;9.00;99.90;;;;;;5005304;28;19929;-65
2023/05/16 02:24:01;;;;;;;;;;;9.00;99.90;;;;;;5011674;28;19969;-67
2023/05/16 02:26:28;;;;;;;;;;;8.90;99.90;;;;;;5018808;28;19933;-67
2023/05/16 02:28:55;;;;;;;;;;;9.00;99.90;;;;;;5011439;28;19995;-68
2023/05/16 02:31:25;;;;;;;;;;;9.00;99.90;;;;;;5007269;28;19992;-67
2023/05/16 02:33:52;;;;;;;;;;;8.90;99.90;;;;;;5004697;28;19925;-67
2023/05/16 02:36:21;;;;;;;;;;;8.90;99.90;;;;;;5011382;28;20388;-67
2023/05/16 02:38:48;;;;;;;;;;;8.90;99.90;;;;;;5012649;28;20372;-67
2023/05/16 02:41:15;;;;;;;;;;;8.90;99.90;;;;;;5021012;28;19933;-66
2023/05/16 02:43:42;;;;;;;;;;;8.80;99.90;;;;;;5011122;28;19933;-68
2023/05/16 02:46:20;;;;;;;;;;;8.90;99.90;;;;;;5021208;28;20101;-68
2023/05/16 02:48:47;;;;;;;;;;;8.90;99.90;;;;;;5005722;28;19933;-66
2023/05/16 02:51:14;;;;;;;;;;;8.90;99.90;;;;;;5011496;28;20451;-67
2023/05/16 02:53:42;;;;;;;;;;;8.90;99.90;;;;;;5011299;28;19929;-67
2023/05/16 02:56:09;;;;;;;;;;;8.80;99.90;;;;;;5011408;28;19937;-67
2023/05/16 02:58:36;;;;;;;;;;;8.80;99.90;;;;;;5008352;28;20013;-67
2023/05/16 03:01:03;;;;;;;;;;;8.80;99.90;;;;;;5023868;28;19925;-67
2023/05/16 03:03:29;;;;;;;;;;;8.80;99.90;;;;;;5017361;28;19925;-67
2023/05/16 03:05:56;;;;;;;;;;;8.80;99.90;;;;;;5010960;28;19926;-68
2023/05/16 03:08:23;;;;;;;;;;;8.80;99.90;;;;;;5012562;28;19932;-67
2023/05/16 03:10:51;;;;;;;;;;;8.70;99.90;;;;;;5011459;28;19925;-68
2023/05/16 03:13:18;;;;;;;;;;;8.70;99.90;;;;;;5011138;28;20020;-68
2023/05/16 03:15:45;;;;;;;;;;;8.60;99.90;;;;;;5009821;28;20016;-68
2023/05/16 03:18:12;;;;;;;;;;;8.50;99.90;;;;;;5019079;28;19925;-68
2023/05/16 03:20:39;;;;;;;;;;;8.50;99.90;;;;;;5004561;28;19926;-68
2023/05/16 03:23:06;;;;;;;;;;;8.40;99.90;;;;;;5007626;28;19932;-68
2023/05/16 03:25:36;;;;;;;;;;;8.40;99.90;;;;;;5010706;28;19931;-67
2023/05/16 03:28:05;;;;;;;;;;;8.30;99.90;;;;;;5013659;28;20025;-67
2023/05/16 03:30:32;;;;;;;;;;;8.20;99.90;;;;;;5017628;28;19929;-68
2023/05/16 03:32:59;;;;;;;;;;;8.20;99.90;;;;;;5023530;28;19932;-67
2023/05/16 03:35:25;;;;;;;;;;;8.10;99.90;;;;;;5015023;28;19926;-67
2023/05/16 03:37:52;;;;;;;;;;;8.10;99.90;;;;;;5014960;28;19933;-68
2023/05/16 03:40:19;;;;;;;;;;;8.00;99.90;;;;;;5022099;28;19926;-67
2023/05/16 03:42:46;;;;;;;;;;;7.90;99.90;;;;;;5019825;28;20313;-68
2023/05/16 03:45:14;;;;;;;;;;;7.90;99.90;;;;;;5020135;28;19926;-67
2023/05/16 03:47:41;;;;;;;;;;;7.80;99.90;;;;;;5009242;28;19929;-67
2023/05/16 03:50:08;;;;;;;;;;;7.80;99.90;;;;;;5024073;28;19926;-67
2023/05/16 03:52:35;;;;;;;;;;;7.70;99.90;;;;;;5014299;28;19932;-66
2023/05/16 03:55:02;;;;;;;;;;;7.70;99.90;;;;;;5014753;28;19975;-67
2023/05/16 03:57:31;;;;;;;;;;;7.70;99.90;;;;;;5021466;28;19933;-67
2023/05/16 03:59:58;;;;;;;;;;;7.70;99.90;;;;;;5014576;28;19929;-67
2023/05/16 04:02:26;;;;;;;;;;;7.60;99.90;;;;;;5013938;28;19955;-67
2023/05/16 04:04:54;;;;;;;;;;;7.60;99.90;;;;;;5009622;28;19930;-68
2023/05/16 04:07:21;;;;;;;;;;;7.50;99.90;;;;;;5014057;28;19929;-66
2023/05/16 04:09:47;;;;;;;;;;;7.50;99.90;;;;;;5010049;28;19925;-67
2023/05/16 04:12:14;;;;;;;;;;;7.50;99.90;;;;;;5013744;28;19932;-67
2023/05/16 04:14:41;;;;;;;;;;;7.50;99.90;;;;;;5013964;28;19937;-69
2023/05/16 04:17:08;;;;;;;;;;;7.50;99.90;;;;;;5022280;28;20024;-68
2023/05/16 04:19:36;;;;;;;;;;;7.40;99.90;;;;;;5021939;28;19929;-68
2023/05/16 04:22:03;;;;;;;;;;;7.40;99.90;;;;;;5020186;28;19925;-68
2023/05/16 04:24:29;;;;;;;;;;;7.40;99.90;;;;;;5015333;28;19925;-69
2023/05/16 04:26:56;;;;;;;;;;;7.40;99.90;;;;;;5012219;28;19925;-68
2023/05/16 04:29:23;;;;;;;;;;;7.40;99.90;;;;;;5015219;28;19926;-68
2023/05/16 04:31:50;;;;;;;;;;;7.40;99.90;;;;;;5013399;28;19933;-68
2023/05/16 04:34:17;;;;;;;;;;;7.40;99.90;;;;;;5013186;28;19930;-68
2023/05/16 04:36:45;;;;;;;;;;;7.40;99.90;;;;;;5013323;28;19929;-67
2023/05/16 04:39:12;;;;;;;;;;;7.40;99.90;;;;;;5013779;28;19936;-68
2023/05/16 04:41:39;;;;;;;;;;;7.40;99.90;;;;;;5015135;28;19932;-68
2023/05/16 04:44:06;;;;;;;;;;;7.40;99.90;;;;;;5021634;28;20024;-67
2023/05/16 04:46:33;;;;;;;;;;;7.40;99.90;;;;;;5020191;28;19965;-68
2023/05/16 04:49:00;;;;;;;;;;;7.40;99.90;;;;;;5011341;28;19933;-68
2023/05/16 04:51:27;;;;;;;;;;;7.40;99.90;;;;;;5026615;28;19925;-68
2023/05/16 04:53:55;;;;;;;;;;;7.50;99.90;;;;;;5013302;28;19925;-68
2023/05/16 04:56:22;;;;;;;;;;;7.40;99.90;;;;;;5023769;28;19929;-67
2023/05/16 04:58:49;;;;;;;;;;;7.50;99.90;;;;;;5013549;28;19926;-67
2023/05/16 05:01:15;;;;;;;;;;;7.50;99.90;;;;;;5012407;28;19933;-68
2023/05/16 05:03:42;;;;;;;;;;;7.50;99.90;;;;;;5011257;28;19934;-68
2023/05/16 05:06:09;;;;;;;;;;;7.50;99.90;;;;;;5020984;28;20336;-74
2023/05/16 05:08:36;;;;;;;;;;;7.50;99.90;;;;;;5017985;28;19933;-67
2023/05/16 05:11:04;;;;;;;;;;;7.50;99.90;;;;;;5013075;28;19929;-69
2023/05/16 05:13:31;;;;;;;;;;;7.50;99.90;;;;;;5024492;28;19926;-68
2023/05/16 05:15:57;;;;;;;;;;;7.50;99.90;;;;;;5018182;28;20425;-67
2023/05/16 05:18:24;;;;;;;;;;;7.60;99.90;;;;;;5023431;28;19925;-67
2023/05/16 05:20:51;;;;;;;;;;;7.60;99.90;;;;;;5022699;28;19933;-68
2023/05/16 05:23:19;;;;;;;;;;;7.60;99.90;;;;;;5018460;28;20491;-69
2023/05/16 05:25:46;;;;;;;;;;;7.70;99.90;;;;;;5012091;28;19925;-68
2023/05/16 05:28:15;;;;;;;;;;;7.70;99.90;;;;;;5012241;28;19926;-67
2023/05/16 05:30:42;;;;;;;;;;;7.80;99.90;;;;;;5012854;28;19930;-68
2023/05/16 05:33:11;;;;;;;;;;;7.80;99.90;;;;;;5021155;28;19930;-68
2023/05/16 05:35:37;;;;;;;;;;;7.90;99.90;;;;;;5010252;28;19929;-68
2023/05/16 05:38:05;;;;;;;;;;;8.00;99.90;;;;;;5004557;28;19933;-67
2023/05/16 05:40:31;;;;;;;;;;;8.10;99.90;;;;;;5011755;28;19926;-68
2023/05/16 05:42:58;;;;;;;;;;;8.20;99.90;;;;;;5024038;28;19926;-73
2023/05/16 05:45:26;;;;;;;;;;;8.20;99.90;;;;;;5010703;28;19937;-73
2023/05/16 05:47:53;;;;;;;;;;;8.20;99.90;;;;;;5017140;28;19929;-67
2023/05/16 05:50:20;;;;;;;;;;;8.20;99.90;;;;;;5009368;28;19925;-69
2023/05/16 05:52:47;;;;;;;;;;;8.30;99.90;;;;;;5012350;28;19929;-68
2023/05/16 05:55:13;;;;;;;;;;;8.40;99.90;;;;;;5009540;28;19929;-66
2023/05/16 05:57:40;;;;;;;;;;;8.40;99.90;;;;;;5011298;28;20005;-68
2023/05/16 06:00:08;;;;;;;;;;;8.50;99.90;;;;;;5007940;28;20343;-68
2023/05/16 06:02:36;;;;;;;;;;;8.60;99.90;;;;;;5023545;28;19926;-65
2023/05/16 06:05:03;;;;;;;;;;;8.70;99.90;;;;;;5010703;28;19929;-68
2023/05/16 06:07:30;;;;;;;;;;;8.70;99.90;;;;;;5009355;28;19981;-69
2023/05/16 06:09:58;;;;;;;;;;;8.80;99.90;;;;;;5009557;28;19925;-69
2023/05/16 06:12:25;;;;;;;;;;;8.80;99.90;;;;;;5026318;28;20285;-68
2023/05/16 06:14:52;;;;;;;;;;;8.90;99.90;;;;;;5010657;28;19930;-68
2023/05/16 06:17:18;;;;;;;;;;;9.00;99.90;;;;;;5011432;28;19926;-70
2023/05/16 06:19:46;;;;;;;;;;;9.00;99.90;;;;;;5007630;28;19933;-68
2023/05/16 06:22:13;;;;;;;;;;;9.00;99.90;;;;;;5020035;28;19929;-69
2023/05/16 06:24:40;;;;;;;;;;;9.10;99.90;;;;;;5014489;28;19934;-68
2023/05/16 06:27:07;;;;;;;;;;;9.20;99.90;;;;;;5007385;28;19925;-70
2023/05/16 06:29:34;;;;;;;;;;;9.30;99.90;;;;;;5009742;28;19933;-69
2023/05/16 06:32:00;;;;;;;;;;;9.40;99.90;;;;;;5013128;28;19929;-69
2023/05/16 06:34:27;;;;;;;;;;;9.50;99.90;;;;;;5016512;28;20013;-70
2023/05/16 06:36:55;;;;;;;;;;;9.60;99.90;;;;;;5017913;28;20404;-69
2023/05/16 06:39:22;;;;;;;;;;;9.60;99.90;;;;;;5017991;28;19932;-68
2023/05/16 06:41:49;;;;;;;;;;;9.70;99.90;;;;;;5003684;28;19926;-68
2023/05/16 06:44:16;;;;;;;;;;;9.90;99.90;;;;;;5014387;28;19933;-69
2023/05/16 06:46:43;;;;;;;;;;;10.00;99.90;;;;;;5018287;28;19933;-69
2023/05/16 06:49:10;;;;;;;;;;;10.20;99.90;;;;;;5010237;28;19932;-69
2023/05/16 06:51:36;;;;;;;;;;;10.40;99.90;;;;;;5004592;28;20404;-68
2023/05/16 06:54:05;;;;;;;;;;;10.50;99.90;;;;;;5016708;28;19929;-69
2023/05/16 06:56:32;;;;;;;;;;;10.50;99.90;;;;;;5008901;28;19930;-68
2023/05/16 06:59:00;;;;;;;;;;;10.60;99.90;;;;;;5012588;28;19973;-68
2023/05/16 07:01:27;;;;;;;;;;;10.90;99.90;;;;;;5008385;28;19933;-68
2023/05/16 07:03:54;;;;;;;;;;;10.90;99.90;;;;;;5006299;28;19934;-68
2023/05/16 07:06:20;;;;;;;;;;;10.80;99.90;;;;;;5007351;28;19930;-68
2023/05/16 07:08:47;;;;;;;;;;;10.80;99.90;;;;;;5003442;28;19932;-69
2023/05/16 07:11:15;;;;;;;;;;;10.90;99.90;;;;;;5008539;28;19929;-69
2023/05/16 07:13:42;;;;;;;;;;;10.90;99.90;;;;;;5025727;28;19925;-69
2023/05/16 07:16:09;;;;;;;;;;;11.00;99.90;;;;;;5020310;28;19933;-69
2023/05/16 07:18:36;;;;;;;;;;;11.00;99.90;;;;;;5009079;28;19926;-69
2023/05/16 07:21:02;;;;;;;;;;;11.10;99.90;;;;;;5008556;28;19941;-68
2023/05/16 07:23:29;;;;;;;;;;;11.30;99.90;;;;;;5009103;28;19925;-69
2023/05/16 07:25:56;;;;;;;;;;;11.30;99.90;;;;;;5009492;28;19968;-69
2023/05/16 07:28:24;;;;;;;;;;;11.40;99.90;;;;;;5012391;28;20300;-71
2023/05/16 07:30:51;;;;;;;;;;;11.60;99.90;;;;;;5009376;28;19926;-68
2023/05/16 07:33:18;;;;;;;;;;;11.60;99.90;;;;;;5012240;28;19936;-68
2023/05/16 07:35:45;;;;;;;;;;;11.70;99.90;;;;;;5010833;28;19929;-68
2023/05/16 07:38:12;;;;;;;;;;;11.60;99.90;;;;;;5007976;28;20027;-69
2023/05/16 07:40:39;;;;;;;;;;;11.50;99.90;;;;;;5014709;28;19932;-70
2023/05/16 07:43:05;;;;;;;;;;;11.50;99.90;;;;;;5005163;28;19925;-69
2023/05/16 07:45:34;;;;;;;;;;;11.30;99.90;;;;;;5010854;28;20324;-68
2023/05/16 07:48:00;;;;;;;;;;;11.20;99.90;;;;;;5007452;28;19926;-70
2023/05/16 07:50:27;;;;;;;;;;;11.10;99.90;;;;;;5009098;28;19933;-69
2023/05/16 07:52:54;;;;;;;;;;;10.80;99.90;;;;;;5009214;28;19929;-68
2023/05/16 07:55:22;;;;;;;;;;;10.80;99.90;;;;;;5009274;28;19929;-68
2023/05/16 07:57:49;;;;;;;;;;;10.90;99.90;;;;;;5009677;28;19945;-68
2023/05/16 08:00:16;;;;;;;;;;;11.10;99.90;;;;;;5008862;28;19925;-69
2023/05/16 08:02:45;;;;;;;;;;;11.20;99.90;;;;;;5004459;28;19944;-68
2023/05/16 08:05:12;;;;;;;;;;;11.40;99.90;;;;;;5010231;28;19926;-69
2023/05/16 08:07:39;;;;;;;;;;;11.20;99.90;;;;;;5006954;28;19936;-68
2023/05/16 08:10:06;;;;;;;;;;;11.20;99.90;;;;;;5009268;28;19960;-69
2023/05/16 08:12:33;;;;;;;;;;;11.30;99.90;;;;;;5008389;28;19933;-68
2023/05/16 08:15:00;;;;;;;;;;;11.40;99.90;;;;;;5007117;28;19979;-71
2023/05/16 08:17:26;;;;;;;;;;;11.40;99.90;;;;;;5013442;28;19937;-69
2023/05/16 08:19:55;;;;;;;;;;;11.30;99.90;;;;;;5007750;28;19987;-69
2023/05/16 08:22:22;;;;;;;;;;;11.30;99.90;;;;;;5012578;28;20012;-69
2023/05/16 08:24:48;;;;;;;;;;;11.40;99.90;;;;;;5019356;28;19975;-69
2023/05/16 08:27:15;;;;;;;;;;;11.50;99.90;;;;;;5015439;28;19930;-69
2023/05/16 08:29:42;;;;;;;;;;;11.60;99.90;;;;;;5015667;28;19925;-70
2023/05/16 08:32:09;;;;;;;;;;;11.70;99.90;;;;;;5010431;28;20016;-69
2023/05/16 08:34:36;;;;;;;;;;;11.70;99.90;;;;;;5012236;28;19925;-69
2023/05/16 08:37:05;;;;;;;;;;;12.00;99.90;;;;;;5011892;28;20016;-71
2023/05/16 08:39:32;;;;;;;;;;;12.50;99.90;;;;;;5011427;28;19933;-69
2023/05/16 08:41:58;;;;;;;;;;;12.80;99.90;;;;;;5014412;28;19933;-68
2023/05/16 08:44:25;;;;;;;;;;;12.90;99.90;;;;;;5014529;28;19936;-70
2023/05/16 08:46:53;;;;;;;;;;;12.70;99.90;;;;;;5010833;28;19925;-69
2023/05/16 08:49:21;;;;;;;;;;;12.30;99.90;;;;;;5018625;28;19936;-69
2023/05/16 08:51:48;;;;;;;;;;;12.10;99.90;;;;;;5013073;28;19926;-69
2023/05/16 08:54:17;;;;;;;;;;;12.00;99.90;;;;;;5024274;28;19930;-69
2023/05/16 08:56:44;;;;;;;;;;;11.90;99.90;;;;;;5015352;28;19933;-68
2023/05/16 08:59:12;;;;;;;;;;;11.80;99.90;;;;;;5018261;28;20286;-69
2023/05/16 09:01:38;;;;;;;;;;;11.90;99.90;;;;;;5026914;28;19933;-70
2023/05/16 09:04:09;;;;;;;;;;;12.10;99.90;;;;;;5006598;28;19929;-69
2023/05/16 09:06:35;;;;;;;;;;;12.30;99.90;;;;;;5011892;28;20037;-69
2023/05/16 09:09:04;;;;;;;;;;;12.50;99.90;;;;;;5012205;28;19932;-69
2023/05/16 09:11:34;;;;;;;;;;;12.70;99.90;;;;;;5026157;28;20547;-71
2023/05/16 09:14:01;;;;;;;;;;;12.70;99.90;;;;;;5007345;28;19958;-68
2023/05/16 09:16:28;;;;;;;;;;;12.60;99.90;;;;;;5008090;28;19926;-68
2023/05/16 09:18:56;;;;;;;;;;;12.70;99.90;;;;;;5012757;28;19929;-69
2023/05/16 09:21:23;;;;;;;;;;;12.90;99.90;;;;;;5021465;28;19977;-69
2023/05/16 09:23:50;;;;;;;;;;;13.20;99.90;;;;;;5012929;28;19926;-68
2023/05/16 09:26:18;;;;;;;;;;;13.50;99.90;;;;;;5021051;28;20293;-68
2023/05/16 09:28:46;;;;;;;;;;;13.70;99.90;;;;;;5003877;28;19971;-68
2023/05/16 09:31:19;;;;;;;;;;;13.60;99.90;;;;;;5019083;28;19925;-68
2023/05/16 09:33:46;;;;;;;;;;;13.30;99.90;;;;;;5012357;28;19926;-70
2023/05/16 09:36:13;;;;;;;;;;;13.10;99.90;;;;;;5009332;28;19969;-68
2023/05/16 09:38:40;;;;;;;;;;;13.10;99.90;;;;;;5006177;28;19971;-70
2023/05/16 09:41:09;;;;;;;;;;;13.20;99.90;;;;;;5015293;28;19926;-69
2023/05/16 09:43:38;;;;;;;;;;;13.30;99.90;;;;;;5025889;28;19933;-68
2023/05/16 09:46:06;;;;;;;;;;;13.50;99.90;;;;;;5012523;28;20383;-69
2023/05/16 09:48:33;;;;;;;;;;;13.50;99.90;;;;;;5012211;28;20452;-70
2023/05/16 09:51:02;;;;;;;;;;;13.80;99.90;;;;;;5016237;28;19933;-68
2023/05/16 09:53:31;;;;;;;;;;;14.00;99.90;;;;;;5008656;28;19930;-68
2023/05/16 09:56:02;;;;;;;;;;;14.00;99.90;;;;;;5012410;28;19926;-69
2023/05/16 09:58:29;;;;;;;;;;;13.90;99.90;;;;;;5014149;28;19926;-69
2023/05/16 10:00:57;;;;;;;;;;;13.70;99.90;;;;;;5012252;28;19925;-69
2023/05/16 10:03:25;;;;;;;;;;;13.50;99.90;;;;;;5015172;28;19926;-69
2023/05/16 10:05:52;;;;;;;;;;;13.50;99.90;;;;;;5021965;28;19926;-69
2023/05/16 10:08:20;;;;;;;;;;;13.30;99.90;;;;;;5009534;28;20020;-69
2023/05/16 10:10:50;;;;;;;;;;;13.50;99.90;;;;;;5011778;28;20276;-68
2023/05/16 10:13:17;;;;;;;;;;;13.60;99.90;;;;;;5019585;28;19976;-68
2023/05/16 10:15:45;;;;;;;;;;;13.60;99.90;;;;;;5011755;28;19933;-68
2023/05/16 10:18:13;;;;;;;;;;;13.50;99.90;;;;;;5013120;28;19929;-68
2023/05/16 10:20:43;;;;;;;;;;;13.40;99.90;;;;;;5014434;28;20428;-69
2023/05/16 10:23:13;;;;;;;;;;;13.60;99.90;;;;;;5019281;28;19933;-69
2023/05/16 10:25:43;;;;;;;;;;;13.80;99.90;;;;;;5027066;28;19925;-68
2023/05/16 10:28:10;;;;;;;;;;;14.00;99.90;;;;;;5011523;28;20379;-68
2023/05/16 10:30:40;;;;;;;;;;;14.10;99.90;;;;;;5017904;28;19929;-68
2023/05/16 10:33:07;;;;;;;;;;;14.30;99.90;;;;;;5020753;28;19960;-69
2023/05/16 10:35:34;;;;;;;;;;;14.70;99.90;;;;;;5016192;28;20419;-69
2023/05/16 10:38:03;;;;;;;;;;;15.30;99.90;;;;;;5011061;28;20417;-69
2023/05/16 10:40:30;;;;;;;;;;;15.60;99.90;;;;;;5016922;28;19933;-69
2023/05/16 10:42:57;;;;;;;;;;;15.80;99.90;;;;;;5010632;28;19948;-68
2023/05/16 10:45:24;;;;;;;;;;;15.80;99.90;;;;;;5017557;28;20315;-69
2023/05/16 10:47:52;;;;;;;;;;;15.50;99.90;;;;;;5008152;28;19926;-69
2023/05/16 10:50:30;;;;;;;;;;;15.20;99.90;;;;;;5009066;28;19932;-69
2023/05/16 10:53:10;;;;;;;;;;;14.70;99.90;;;;;;5007723;28;19942;-69
2023/05/16 10:55:40;;;;;;;;;;;14.60;99.90;;;;;;5009900;28;19925;-69
2023/05/16 10:58:07;;;;;;;;;;;14.40;99.90;;;;;;5011118;28;19934;-69
2023/05/16 11:00:34;;;;;;;;;;;14.40;99.90;;;;;;5011139;28;19925;-70
2023/05/16 11:03:04;;;;;;;;;;;14.50;99.90;;;;;;5021747;28;19963;-68
2023/05/16 11:05:32;;;;;;;;;;;14.70;99.90;;;;;;5013354;28;19925;-68
2023/05/16 11:08:05;;;;;;;;;;;14.90;99.90;;;;;;5009544;28;19930;-71
2023/05/16 11:10:32;;;;;;;;;;;15.10;99.90;;;;;;5011837;28;19933;-69
2023/05/16 11:13:07;;;;;;;;;;;15.50;99.90;;;;;;5006286;28;20033;-69
2023/05/16 11:15:34;;;;;;;;;;;15.50;99.90;;;;;;5009315;28;19932;-69
2023/05/16 11:18:05;;;;;;;;;;;15.80;99.90;;;;;;5008876;28;20027;-68
2023/05/16 11:20:33;;;;;;;;;;;15.80;99.90;;;;;;5009457;28;20028;-69
2023/05/16 11:23:19;;;;;;;;;;;16.00;99.90;;;;;;5020319;28;19988;-69
2023/05/16 11:25:47;;;;;;;;;;;15.80;99.90;;;;;;5002599;28;19933;-69
2023/05/16 11:28:15;;;;;;;;;;;15.60;99.90;;;;;;5011874;28;20385;-71
2023/05/16 11:30:43;;;;;;;;;;;16.00;99.90;;;;;;5020221;28;19932;-71
2023/05/16 11:33:11;;;;;;;;;;;16.40;99.90;;;;;;5016736;28;19930;-71
2023/05/16 11:35:38;;;;;;;;;;;17.60;99.90;;;;;;5020346;28;19988;-70
2023/05/16 11:38:05;;;;;;;;;;;17.90;99.90;;;;;;5010950;28;20377;-69
2023/05/16 11:40:32;;;;;;;;;;;18.30;99.90;;;;;;5011097;28;19926;-69
2023/05/16 11:43:02;;;;;;;;;;;18.00;99.90;;;;;;5018706;28;19926;-69
2023/05/16 11:45:30;;;;;;;;;;;17.60;99.90;;;;;;5010077;28;20027;-70
2023/05/16 11:48:01;;;;;;;;;;;17.40;99.90;;;;;;5010831;28;19937;-70
2023/05/16 11:50:29;;;;;;;;;;;17.60;99.90;;;;;;5012746;28;19926;-69
2023/05/16 11:52:56;;;;;;;;;;;17.90;99.90;;;;;;5007134;28;20381;-69
2023/05/16 11:55:24;;;;;;;;;;;18.60;99.90;;;;;;5012570;28;20304;-70
2023/05/16 11:57:51;;;;;;;;;;;18.90;99.90;;;;;;5012965;28;19961;-69
2023/05/16 12:00:19;;;;;;;;;;;18.10;99.90;;;;;;5025649;28;20442;-69
2023/05/16 12:02:48;;;;;;;;;;;17.40;99.90;;;;;;5010777;28;20289;-69
2023/05/16 12:05:16;;;;;;;;;;;17.20;99.90;;;;;;5019926;28;19926;-69
2023/05/16 12:07:43;;;;;;;;;;;16.90;99.90;;;;;;5012216;28;20020;-69
2023/05/16 12:10:11;;;;;;;;;;;16.90;99.90;;;;;;5024861;28;19925;-70
2023/05/16 12:12:39;;;;;;;;;;;16.90;99.90;;;;;;5012574;28;19925;-69
2023/05/16 12:15:07;;;;;;;;;;;17.10;99.90;;;;;;5012966;28;19956;-71
2023/05/16 12:17:35;;;;;;;;;;;18.10;99.90;;;;;;5013352;28;19932;-70
2023/05/16 12:20:05;;;;;;;;;;;19.40;99.90;;;;;;5017818;28;19933;-69
2023/05/16 12:22:31;;;;;;;;;;;20.50;99.90;;;;;;5018603;28;19933;-69
2023/05/16 12:24:59;;;;;;;;;;;20.60;99.90;;;;;;5006922;28;19929;-71
2023/05/16 12:27:26;;;;;;;;;;;21.10;99.90;;;;;;5014979;28;19929;-69
2023/05/16 12:29:53;;;;;;;;;;;22.20;99.90;;;;;;5008685;28;19971;-69
2023/05/16 12:32:20;;;;;;;;;;;23.20;99.90;;;;;;5012684;28;19925;-70
2023/05/16 12:34:49;;;;;;;;;;;23.20;99.90;;;;;;5012472;28;19930;-69
2023/05/16 12:37:17;;;;;;;;;;;21.50;99.90;;;;;;5014882;28;19933;-69
2023/05/16 12:39:46;;;;;;;;;;;21.20;99.90;;;;;;5011109;28;19933;-69
2023/05/16 12:42:13;;;;;;;;;;;22.10;99.90;;;;;;5012612;28;19965;-69
2023/05/16 12:44:40;;;;;;;;;;;23.00;99.90;;;;;;5010721;28;19930;-70
2023/05/16 12:47:11;;;;;;;;;;;23.40;99.90;;;;;;5013331;28;20446;-70
2023/05/16 12:49:44;;;;;;;;;;;23.90;99.90;;;;;;5010125;28;19925;-70
2023/05/16 12:52:12;;;;;;;;;;;24.60;99.90;;;;;;5012702;28;19926;-70
2023/05/16 12:54:41;;;;;;;;;;;24.20;99.90;;;;;;5015760;28;20297;-70
2023/05/16 12:57:09;;;;;;;;;;;24.20;99.90;;;;;;5015880;28;20028;-73
2023/05/16 12:59:35;;;;;;;;;;;24.00;99.90;;;;;;5017914;28;19975;-70
2023/05/16 13:02:02;;;;;;;;;;;24.10;99.90;;;;;;5010375;28;19926;-71
2023/05/16 13:04:29;;;;;;;;;;;23.90;99.90;;;;;;5011706;28;19925;-70
2023/05/16 13:06:57;;;;;;;;;;;24.20;99.90;;;;;;5015448;28;19926;-71
2023/05/16 13:09:23;;;;;;;;;;;24.30;99.90;;;;;;5019397;28;20297;-70
2023/05/16 13:11:52;;;;;;;;;;;23.50;99.90;;;;;;5017125;28;19926;-70
2023/05/16 13:14:19;;;;;;;;;;;22.50;99.90;;;;;;5014762;28;20355;-72
2023/05/16 13:16:45;;;;;;;;;;;21.50;99.90;;;;;;5024830;28;19930;-70
2023/05/16 13:19:12;;;;;;;;;;;20.20;99.90;;;;;;5018745;28;19933;-69
2023/05/16 13:21:39;;;;;;;;;;;19.60;99.90;;;;;;5013018;28;20305;-71
2023/05/16 13:24:06;;;;;;;;;;;19.00;99.90;;;;;;5009217;28;19929;-69
2023/05/16 13:26:33;;;;;;;;;;;18.50;99.90;;;;;;5017814;28;19925;-68
2023/05/16 13:29:01;;;;;;;;;;;18.10;99.90;;;;;;5021296;28;19926;-69
2023/05/16 13:31:28;;;;;;;;;;;17.70;99.90;;;;;;5013565;28;19929;-68
2023/05/16 13:33:55;;;;;;;;;;;17.40;99.90;;;;;;5007001;28;19932;-68
2023/05/16 13:36:22;;;;;;;;;;;17.30;99.90;;;;;;5015951;28;19926;-69
2023/05/16 13:38:48;;;;;;;;;;;17.20;99.90;;;;;;5011611;28;19933;-68
2023/05/16 13:41:15;;;;;;;;;;;17.00;99.90;;;;;;5006696;28;19926;-68
2023/05/16 13:43:42;;;;;;;;;;;17.60;99.90;;;;;;5011089;28;19932;-69
2023/05/16 13:46:10;;;;;;;;;;;19.30;99.90;;;;;;5011369;28;20363;-68
2023/05/16 13:48:37;;;;;;;;;;;21.00;99.90;;;;;;5011201;28;20388;-68
2023/05/16 13:51:04;;;;;;;;;;;22.10;99.90;;;;;;5007951;28;20352;-69
2023/05/16 13:53:30;;;;;;;;;;;21.60;99.90;;;;;;5023022;28;19972;-69
2023/05/16 13:55:57;;;;;;;;;;;20.80;99.90;;;;;;5011235;28;19933;-69
2023/05/16 13:58:24;;;;;;;;;;;20.10;99.90;;;;;;5009308;28;20340;-68
2023/05/16 14:00:51;;;;;;;;;;;19.90;99.90;;;;;;5009416;28;19925;-70
2023/05/16 14:03:19;;;;;;;;;;;19.30;99.90;;;;;;5015426;28;19980;-69
2023/05/16 14:05:47;;;;;;;;;;;18.80;99.90;;;;;;5009378;28;19932;-69
2023/05/16 14:08:14;;;;;;;;;;;18.30;99.90;;;;;;5010580;28;20311;-68
2023/05/16 14:10:40;;;;;;;;;;;17.90;99.90;;;;;;5014370;28;19977;-68
2023/05/16 14:13:07;;;;;;;;;;;17.30;99.90;;;;;;5010166;28;19932;-70
2023/05/16 14:15:34;;;;;;;;;;;17.20;99.90;;;;;;5009771;28;19925;-69
2023/05/16 14:18:02;;;;;;;;;;;17.00;99.90;;;;;;5010891;28;19931;-68
2023/05/16 14:20:31;;;;;;;;;;;16.90;99.90;;;;;;5017002;28;20312;-69
2023/05/16 14:22:58;;;;;;;;;;;16.70;99.90;;;;;;5008831;28;19937;-68
2023/05/16 14:25:24;;;;;;;;;;;16.60;99.90;;;;;;5009000;28;19926;-69